CYDP/YDP METAR and TAF weather

Enter ICAO airport designator
Station Type Date Time Source
CYDP METAR 2021/09/16 11:00 UTC NOAA

CYDP 161100Z 26013G22KT 15SM FEW022 BKN110 09/04 A2953 RMK SC1AC5 SLP001


Station Type Date Time Source
CYDP Decoded METAR 2021/09/16 11:00 UTC NOAA

Nain, Nfld, Canada (CYDP) 56-33N 061-41W 7M
Sep 16, 2021 - 07:00 AM EDT / 2021.09.16 1100 UTC
Wind: from the W (260 degrees) at 15 MPH (13 KT) gusting to 25 MPH (22 KT):0
Visibility: 15 mile(s):0
Sky conditions: mostly cloudy
Temperature: 48 F (9 C)
Dew Point: 39 F (4 C)
Relative Humidity: 70%
Pressure (altimeter): 29.53 in. Hg (1000 hPa)
ob: CYDP 161100Z 26013G22KT 15SM FEW022 BKN110 09/04 A2953 RMK SC1AC5 SLP001
cycle: 11

Station Type Date Time Source
CYDP TAF 2021/09/16 10:48 UTC NOAA

TAF TAF CYDP 160946Z 1610/1622 25010KT P6SM SCT030
TEMPO 1610/1618 BKN030
BECMG 1612/1614 27015G30KT
FM161800 29020G35KT P6SM BKN030
FM162100 30025G40KT P6SM SCT030
RMK NXT FCST BY 161400Z

Example: see airport list